Lexington, Indiana
Current Conditions -  °F | °C
As of 1:53 PM on Thursday 30 Oct 2014 (Local Time) from KLOU Reporting Station
Clear Clear  
Wind Chill: 11°   Ceiling: Unl
Heat Index: 11°   Visibility: 10mi
Dew Point:   Wind: 3mph
Humidity: 53%   Direction: 160°SSE
Pressure: 30.12"   Gusts: NA
Location:  38.65°N, 85.63°W
Report Text: KLOU 301753Z 16003KT 10SM CLR 11/02 A3012 RMK AO2 SLP202 T01110017 10117 20028 58021
Loading
Personal Weather Stations






























Interactive Weather Map
Tropical Storm Tracking
New forecast layout! Learn more

10-Day Weather Forecast

Advertisements
Track Severe Weather on mobile